Time;durP1;ratioP1;P1;durP2;ratioP2;P2;SDS_P1;SDS_P2;PMS_P1;PMS_P2;Temp;Humidity;BMP_temperature;BMP_pressure;BME280_temperature;BME280_humidity;BME280_pressure;Samples;Min_cycle;Max_cycle;Signal;HPM_P1;HPM_P2
2021/04/28 00:02:01;;;;;;;18.43;6.13;;;;;;;8.76;61.35;95360.59;4942182;28;20494;-71
2021/04/28 00:04:28;;;;;;;18.53;6.47;;;;;;;8.66;61.88;95359.66;4946491;28;20467;-69
2021/04/28 00:06:55;;;;;;;9.27;5.97;;;;;;;8.54;62.08;95369.16;4947488;28;20454;-70
2021/04/28 00:09:23;;;;;;;8.53;5.07;;;;;;;8.65;61.66;95361.41;4942543;28;20852;-70
2021/04/28 00:11:50;;;;;;;11.43;6.07;;;;;;;8.67;61.56;95363.91;4943026;28;20810;-70
2021/04/28 00:14:18;;;;;;;14.13;5.70;;;;;;;8.66;61.64;95370.03;4937016;28;20914;-74
2021/04/28 00:16:44;;;;;;;14.53;6.30;;;;;;;8.66;61.34;95357.91;4941137;28;21008;-71
2021/04/28 00:19:12;;;;;;;11.10;5.83;;;;;;;8.64;61.50;95354.56;4952530;28;20473;-71
2021/04/28 00:21:38;;;;;;;11.90;5.40;;;;;;;8.52;61.31;95360.69;4947375;28;20912;-72
2021/04/28 00:24:06;;;;;;;12.00;6.30;;;;;;;8.44;61.89;95354.41;4941124;28;20539;-70
2021/04/28 00:26:33;;;;;;;15.50;6.90;;;;;;;8.48;61.96;95351.47;4948434;28;20440;-71
2021/04/28 00:29:00;;;;;;;17.57;7.40;;;;;;;8.44;62.70;95344.88;4912740;28;20464;-71
2021/04/28 00:31:28;;;;;;;15.83;6.50;;;;;;;8.46;62.35;95353.34;4941266;28;20653;-72
2021/04/28 00:33:55;;;;;;;17.60;6.90;;;;;;;8.43;62.45;95361.34;4947817;28;20780;-71
2021/04/28 00:36:22;;;;;;;15.23;6.60;;;;;;;8.44;62.74;95346.63;4945224;28;20820;-72
2021/04/28 00:38:49;;;;;;;10.10;6.23;;;;;;;8.41;62.76;95347.66;4938366;28;20493;-70
2021/04/28 00:41:16;;;;;;;12.95;6.75;;;;;;;8.28;63.36;95343.50;4945974;28;20914;-71
2021/04/28 00:43:43;;;;;;;14.57;6.45;;;;;;;8.31;63.26;95345.06;4942839;28;20320;-71
2021/04/28 00:46:09;;;;;;;13.53;6.37;;;;;;;8.22;63.78;95340.50;4940180;28;20689;-71
2021/04/28 00:48:37;;;;;;;12.00;5.93;;;;;;;8.08;63.13;95332.91;4939118;28;20509;-70
2021/04/28 00:51:05;;;;;;;13.13;5.60;;;;;;;7.91;63.39;95336.72;4943742;28;20458;-70
2021/04/28 00:53:32;;;;;;;9.57;5.50;;;;;;;7.85;64.10;95331.97;4941893;28;20485;-71
2021/04/28 00:56:00;;;;;;;8.75;5.47;;;;;;;7.89;64.59;95332.56;4944299;28;20290;-70
2021/04/28 00:58:28;;;;;;;22.15;6.05;;;;;;;7.82;64.67;95334.78;4948609;28;20195;-70
2021/04/28 01:00:56;;;;;;;16.88;6.10;;;;;;;7.76;64.64;95331.78;4944734;28;20514;-69
2021/04/28 01:03:26;;;;;;;11.00;5.82;;;;;;;7.73;65.04;95322.47;4946983;28;20847;-72
2021/04/28 01:05:58;;;;;;;12.20;6.40;;;;;;;7.76;64.60;95324.84;4940578;28;20202;-69
2021/04/28 01:08:25;;;;;;;17.73;6.50;;;;;;;7.75;64.96;95324.97;4944463;28;20286;-72
2021/04/28 01:10:53;;;;;;;11.70;5.13;;;;;;;7.76;64.88;95326.59;4944871;28;20218;-70
2021/04/28 01:13:21;;;;;;;8.82;4.88;;;;;;;7.72;65.50;95323.41;4938803;28;20192;-70
2021/04/28 01:15:50;;;;;;;14.40;5.83;;;;;;;7.72;65.28;95330.38;4943958;28;20203;-71
2021/04/28 01:18:18;;;;;;;17.98;6.03;;;;;;;7.74;64.50;95328.47;4936704;28;20906;-72
2021/04/28 01:20:47;;;;;;;11.48;5.60;;;;;;;7.57;65.63;95323.69;4945001;28;20183;-70
2021/04/28 01:23:16;;;;;;;16.23;5.15;;;;;;;7.40;65.82;95326.59;4938981;28;20626;-71
2021/04/28 01:25:43;;;;;;;17.50;5.70;;;;;;;7.24;66.09;95320.84;4941953;28;20203;-70
2021/04/28 01:28:14;;;;;;;13.65;5.03;;;;;;;7.28;66.10;95328.28;4948325;28;20670;-70
2021/04/28 01:30:45;;;;;;;10.70;5.45;;;;;;;7.19;66.37;95302.22;4938591;28;20635;-71
2021/04/28 01:33:16;;;;;;;9.77;5.70;;;;;;;7.21;66.31;95310.72;4943846;28;20242;-69
2021/04/28 01:35:45;;;;;;;9.32;4.88;;;;;;;7.16;66.24;95317.97;4944561;28;20258;-70
2021/04/28 01:38:14;;;;;;;9.43;5.35;;;;;;;7.21;65.79;95321.88;4942181;28;20697;-70
2021/04/28 01:40:43;;;;;;;11.07;5.68;;;;;;;7.17;66.00;95336.00;4943642;28;20195;-71
2021/04/28 01:43:10;;;;;;;14.32;6.00;;;;;;;7.23;66.43;95321.78;4946341;28;20226;-69
2021/04/28 01:45:38;;;;;;;16.58;6.38;;;;;;;7.12;66.48;95324.28;4940372;28;20231;-70
2021/04/28 01:48:07;;;;;;;11.55;6.43;;;;;;;7.12;66.67;95319.09;4943867;28;20227;-72
2021/04/28 01:50:34;;;;;;;13.25;6.07;;;;;;;7.17;66.37;95323.06;4942799;28;20219;-70
2021/04/28 01:53:02;;;;;;;14.18;7.32;;;;;;;7.19;66.81;95321.19;4947058;28;20249;-72
2021/04/28 01:55:30;;;;;;;14.32;7.55;;;;;;;7.22;66.54;95318.34;4939969;28;20613;-70
2021/04/28 01:58:01;;;;;;;8.60;5.53;;;;;;;7.17;66.75;95309.28;4941521;28;20187;-71
2021/04/28 02:00:30;;;;;;;11.38;6.32;;;;;;;7.15;67.20;95318.91;4942881;28;20231;-72
2021/04/28 02:02:57;;;;;;;11.68;6.38;;;;;;;7.17;67.25;95317.03;4945934;28;20246;-71
2021/04/28 02:05:24;;;;;;;12.70;6.45;;;;;;;7.06;67.34;95309.19;4948793;28;20277;-70
2021/04/28 02:07:51;;;;;;;16.05;6.35;;;;;;;7.03;67.44;95312.81;4943268;28;20384;-70
2021/04/28 02:10:18;;;;;;;13.45;6.32;;;;;;;7.03;67.32;95309.41;4937201;28;20286;-70
2021/04/28 02:12:48;;;;;;;13.73;6.15;;;;;;;6.98;67.39;95309.72;4952503;28;20266;-70
2021/04/28 02:15:19;;;;;;;9.82;5.47;;;;;;;6.96;67.39;95313.34;4943476;28;20223;-70
2021/04/28 02:17:50;;;;;;;9.45;5.65;;;;;;;6.86;67.36;95309.72;4941422;28;20521;-70
2021/04/28 02:20:19;;;;;;;13.40;6.35;;;;;;;6.78;66.87;95309.44;4937366;28;20846;-71
2021/04/28 02:22:47;;;;;;;13.93;6.15;;;;;;;6.71;67.42;95300.44;4938633;28;20191;-73
2021/04/28 02:25:14;;;;;;;11.40;6.30;;;;;;;6.75;67.75;95307.03;4940998;28;20250;-73
2021/04/28 02:27:45;;;;;;;7.82;5.32;;;;;;;6.80;67.77;95297.22;4945191;28;20561;-72
2021/04/28 02:30:15;;;;;;;11.13;4.95;;;;;;;6.80;67.66;95297.22;4937379;28;20880;-71
2021/04/28 02:32:44;;;;;;;11.23;5.45;;;;;;;6.61;68.02;95286.44;4940713;28;20281;-69
2021/04/28 02:35:13;;;;;;;13.52;5.53;;;;;;;6.60;67.78;95297.72;4940784;28;20608;-71
2021/04/28 02:37:43;;;;;;;19.45;5.07;;;;;;;6.56;68.50;95299.69;4946333;28;20522;-70
2021/04/28 02:40:13;;;;;;;7.57;4.93;;;;;;;6.64;68.31;95296.59;4945175;28;20226;-69
2021/04/28 02:42:40;;;;;;;11.15;5.38;;;;;;;6.58;68.15;95302.19;4944834;28;20187;-71
2021/04/28 02:45:08;;;;;;;8.48;4.88;;;;;;;6.56;68.45;95294.53;4949494;28;20741;-71
2021/04/28 02:47:38;;;;;;;11.32;5.43;;;;;;;6.61;68.41;95297.63;4946329;28;20618;-70
2021/04/28 02:50:08;;;;;;;14.55;6.25;;;;;;;6.66;67.79;95297.31;4938099;28;20309;-71
2021/04/28 02:52:36;;;;;;;10.57;6.15;;;;;;;6.64;68.33;95296.59;4942584;28;20214;-72
2021/04/28 02:55:04;;;;;;;15.38;6.40;;;;;;;6.68;67.94;95292.88;4936788;28;20227;-72
2021/04/28 02:57:32;;;;;;;22.58;6.07;;;;;;;6.58;68.09;95291.84;4935876;28;20647;-72
2021/04/28 03:00:02;;;;;;;11.52;6.30;;;;;;;6.50;68.68;95288.94;4944283;28;20658;-71
2021/04/28 03:02:30;;;;;;;12.38;5.70;;;;;;;6.37;68.64;95280.34;4934006;28;20760;-71
2021/04/28 03:04:58;;;;;;;17.60;6.95;;;;;;;6.38;68.92;95289.75;4942673;28;20685;-71
2021/04/28 03:07:33;;;;;;;16.10;6.88;;;;;;;6.43;69.15;95282.53;4938166;28;20207;-70
2021/04/28 03:10:01;;;;;;;9.93;5.97;;;;;;;6.42;69.07;95280.88;4936516;28;20607;-71
2021/04/28 03:12:29;;;;;;;12.32;6.22;;;;;;;6.37;69.01;95277.78;4940714;28;20734;-71
2021/04/28 03:14:55;;;;;;;13.88;6.82;;;;;;;6.45;68.43;95283.25;4938915;28;20685;-70
2021/04/28 03:17:22;;;;;;;11.00;6.45;;;;;;;6.30;69.12;95285.13;4944406;28;20230;-70
2021/04/28 03:19:51;;;;;;;11.52;6.10;;;;;;;6.16;70.08;95286.94;4944769;28;20229;-68
2021/04/28 03:22:19;;;;;;;12.23;6.32;;;;;;;6.09;69.86;95278.78;4945502;28;20226;-72
2021/04/28 03:24:47;;;;;;;13.00;6.68;;;;;;;5.97;70.66;95286.50;4944919;28;20219;-70
2021/04/28 03:27:16;;;;;;;9.93;5.72;;;;;;;6.05;70.02;95281.66;4945847;28;20560;-73
2021/04/28 03:29:43;;;;;;;10.55;6.43;;;;;;;6.00;69.82;95278.53;4944551;28;20231;-69
2021/04/28 03:32:10;;;;;;;9.25;5.63;;;;;;;5.93;70.40;95280.72;4951804;28;20213;-68
2021/04/28 03:34:37;;;;;;;15.73;5.55;;;;;;;5.90;70.10;95277.50;4948801;28;20569;-71
2021/04/28 03:37:05;;;;;;;15.90;6.70;;;;;;;5.88;70.14;95284.50;4946960;28;20214;-69
2021/04/28 03:39:32;;;;;;;16.10;6.47;;;;;;;5.86;70.00;95286.34;4945082;28;20226;-70
2021/04/28 03:42:01;;;;;;;17.20;5.70;;;;;;;5.87;70.15;95290.59;4944503;28;20690;-72
2021/04/28 03:44:30;;;;;;;12.65;6.18;;;;;;;5.92;70.20;95278.22;4944429;28;20226;-71
2021/04/28 03:46:57;;;;;;;8.98;5.78;;;;;;;5.91;70.55;95285.13;4944127;28;20549;-73
2021/04/28 03:49:24;;;;;;;12.40;5.88;;;;;;;5.91;70.46;95279.16;4937967;28;20561;-72
2021/04/28 03:51:51;;;;;;;14.57;5.88;;;;;;;5.93;nan;95277.28;4939105;28;20211;-72
2021/04/28 03:54:19;;;;;;;15.95;5.80;;;;;;;5.93;70.07;95282.44;4938380;28;20701;-73
2021/04/28 03:56:47;;;;;;;25.10;5.70;;;;;;;5.90;70.39;95282.66;4946084;28;20214;-68
2021/04/28 03:59:16;;;;;;;22.52;6.15;;;;;;;5.91;70.37;95287.72;4938271;28;20219;-72
2021/04/28 04:01:43;;;;;;;20.60;7.93;;;;;;;5.95;70.26;95286.59;4945163;28;20572;-72
2021/04/28 04:04:10;;;;;;;10.50;5.45;;;;;;;5.99;69.73;95287.22;4942781;28;20293;-72
2021/04/28 04:06:38;;;;;;;15.27;5.68;;;;;;;5.83;70.10;95297.72;4946330;28;20697;-73
2021/04/28 04:09:08;;;;;;;18.45;6.57;;;;;;;5.78;70.37;95291.16;4943520;28;20549;-72
2021/04/28 04:11:35;;;;;;;13.40;6.13;;;;;;;5.70;70.17;95281.34;4945021;28;20824;-71
2021/04/28 04:14:03;;;;;;;14.55;5.40;;;;;;;5.66;70.61;95291.94;4946889;28;20211;-72
2021/04/28 04:16:30;;;;;;;11.27;5.53;;;;;;;5.58;70.91;95294.19;4935067;28;20629;-72
2021/04/28 04:18:58;;;;;;;12.40;5.95;;;;;;;5.59;71.06;95288.09;4945536;28;20715;-72
2021/04/28 04:21:25;;;;;;;19.38;6.88;;;;;;;5.72;70.99;95299.28;4944357;28;20560;-73
2021/04/28 04:23:54;;;;;;;10.32;5.50;;;;;;;5.80;70.54;95292.75;4949460;28;20214;-69
2021/04/28 04:26:21;;;;;;;14.55;6.40;;;;;;;5.77;70.28;95294.66;4945410;28;20260;-74
2021/04/28 04:28:48;;;;;;;10.95;5.40;;;;;;;5.86;70.08;95291.53;4941469;28;20234;-73
2021/04/28 04:31:31;;;;;;;10.07;6.32;;;;;;;5.93;69.73;95305.69;4937812;28;20207;-71
2021/04/28 04:33:58;;;;;;;12.23;5.95;;;;;;;5.75;70.70;95299.13;4927615;28;20538;-71
2021/04/28 04:36:26;;;;;;;14.07;6.10;;;;;;;5.79;70.78;95304.00;4946937;28;20685;-69
2021/04/28 04:38:53;;;;;;;13.57;6.13;;;;;;;5.84;71.16;95301.13;4947917;28;20824;-69
2021/04/28 04:41:19;;;;;;;14.80;6.22;;;;;;;5.91;70.63;95297.22;4942324;28;20195;-68
2021/04/28 04:43:47;;;;;;;8.55;5.53;;;;;;;5.96;70.99;95297.75;4940608;28;20273;-70
2021/04/28 04:46:14;;;;;;;12.50;6.18;;;;;;;5.98;70.90;95290.75;4944785;28;20230;-69
2021/04/28 04:48:42;;;;;;;11.85;5.35;;;;;;;5.96;70.84;95295.19;4945920;28;20227;-70
2021/04/28 04:51:09;;;;;;;15.13;6.50;;;;;;;5.91;70.70;95304.97;4942241;28;20491;-70
2021/04/28 04:53:38;;;;;;;14.52;6.68;;;;;;;5.94;71.05;95304.75;4936067;28;20223;-69
2021/04/28 04:56:05;;;;;;;12.05;6.60;;;;;;;5.74;71.31;95297.47;4945170;28;20223;-69
2021/04/28 04:58:32;;;;;;;14.38;7.57;;;;;;;5.83;71.15;95304.63;4946038;28;20230;-70
2021/04/28 05:00:59;;;;;;;16.10;6.63;;;;;;;5.83;71.48;95302.06;4949561;28;20639;-71
2021/04/28 05:03:26;;;;;;;12.73;6.07;;;;;;;5.92;70.34;95306.63;4941490;28;20231;-71
2021/04/28 05:05:54;;;;;;;10.15;6.03;;;;;;;5.88;70.36;95305.16;4948736;28;20179;-70
2021/04/28 05:08:21;;;;;;;12.55;6.55;;;;;;;5.99;70.39;95307.88;4942276;28;20253;-70
2021/04/28 05:10:48;;;;;;;11.73;6.82;;;;;;;6.02;70.36;95305.94;4947918;28;20654;-70
2021/04/28 05:13:18;;;;;;;13.25;5.60;;;;;;;6.18;69.77;95308.34;4944566;28;20207;-71
2021/04/28 05:15:45;;;;;;;20.38;7.05;;;;;;;6.15;70.13;95314.53;4944066;28;20261;-71
2021/04/28 05:18:11;;;;;;;9.38;6.30;;;;;;;6.11;70.42;95307.09;4943165;28;20578;-71
2021/04/28 05:20:39;;;;;;;13.35;6.32;;;;;;;6.15;70.29;95303.38;4944281;28;20199;-70
2021/04/28 05:23:06;;;;;;;14.52;6.05;;;;;;;6.26;69.73;95308.66;4947150;28;20221;-69
2021/04/28 05:25:34;;;;;;;12.48;6.65;;;;;;;6.30;69.60;95302.34;4947134;28;20277;-70
2021/04/28 05:28:01;;;;;;;19.67;7.43;;;;;;;6.27;69.27;95312.91;4940183;28;20748;-71
2021/04/28 05:30:28;;;;;;;12.45;7.00;;;;;;;6.32;69.44;95308.25;4946815;28;20282;-71
2021/04/28 05:32:55;;;;;;;11.32;6.88;;;;;;;6.38;69.08;95305.25;4936749;28;20206;-73
2021/04/28 05:35:23;;;;;;;14.27;6.50;;;;;;;6.52;69.41;95315.50;4945009;28;20223;-70
2021/04/28 05:37:50;;;;;;;13.90;7.13;;;;;;;6.73;68.71;95311.50;4938117;28;20520;-70
2021/04/28 05:40:19;;;;;;;17.85;8.57;;;;;;;6.65;68.70;95299.09;4947866;28;20222;-69
2021/04/28 05:42:46;;;;;;;13.88;6.82;;;;;;;6.53;69.14;95314.56;4950828;28;20650;-70
2021/04/28 05:45:14;;;;;;;11.85;7.75;;;;;;;6.32;69.87;95309.09;4948224;28;20266;-70
2021/04/28 05:47:50;;;;;;;19.30;9.02;;;;;;;6.40;69.55;95311.19;4947884;28;20210;-71
2021/04/28 05:50:18;;;;;;;15.38;8.65;;;;;;;6.59;70.01;95324.50;4943462;28;20694;-71
2021/04/28 05:52:45;;;;;;;13.45;7.60;;;;;;;6.64;69.12;95325.84;4949530;28;20227;-70
2021/04/28 05:55:13;;;;;;;16.02;7.57;;;;;;;6.90;69.74;95321.50;4943105;28;20227;-71
2021/04/28 05:57:43;;;;;;;22.83;9.00;;;;;;;7.02;69.12;95318.09;4940720;28;20195;-70
2021/04/28 06:00:12;;;;;;;19.65;9.05;;;;;;;7.33;68.28;95313.28;4943064;28;20752;-73
2021/04/28 06:02:39;;;;;;;24.38;8.73;;;;;;;7.71;67.08;95319.16;4912640;28;20713;-72
2021/04/28 06:05:07;;;;;;;15.50;7.82;;;;;;;8.07;66.35;95320.88;4943334;28;20847;-69
2021/04/28 06:07:34;;;;;;;25.92;8.65;;;;;;;8.39;65.58;95318.44;4939531;28;20222;-71
2021/04/28 06:10:02;;;;;;;17.33;7.80;;;;;;;8.73;64.86;95307.22;4936917;28;20716;-70
2021/04/28 06:12:29;;;;;;;17.25;8.40;;;;;;;8.92;64.30;95302.28;4939424;28;20789;-72
2021/04/28 06:14:57;;;;;;;27.27;8.18;;;;;;;9.21;63.69;95316.44;4943281;28;20275;-71
2021/04/28 06:17:24;;;;;;;14.20;7.43;;;;;;;9.31;63.44;95312.16;4942173;28;20183;-71
2021/04/28 06:19:51;;;;;;;20.73;9.57;;;;;;;9.40;63.11;95314.06;4939296;28;20941;-71
2021/04/28 06:22:18;;;;;;;16.60;8.20;;;;;;;9.53;63.55;95312.16;4942182;28;20438;-72
2021/04/28 06:24:45;;;;;;;16.20;9.07;;;;;;;9.61;62.72;95306.38;4939955;28;20953;-71
2021/04/28 06:27:12;;;;;;;41.90;20.80;;;;;;;9.64;62.97;95312.16;4948013;28;20438;-72
2021/04/28 06:29:42;;;;;;;60.57;26.67;;;;;;;9.82;62.51;95313.28;4949744;28;21002;-73
2021/04/28 06:32:10;;;;;;;13.13;8.53;;;;;;;9.93;62.20;95300.28;4947767;28;20477;-71
2021/04/28 06:34:38;;;;;;;20.60;8.00;;;;;;;9.95;61.98;95319.16;4948757;28;20470;-70
2021/04/28 06:37:05;;;;;;;17.77;8.63;;;;;;;9.85;62.61;95310.44;4938206;28;20469;-73
2021/04/28 06:39:32;;;;;;;15.27;8.50;;;;;;;10.05;62.46;95317.53;4942741;28;21020;-72
2021/04/28 06:41:58;;;;;;;22.77;8.80;;;;;;;10.19;61.90;95309.44;4925381;28;20446;-70
2021/04/28 06:44:26;;;;;;;19.90;9.23;;;;;;;10.36;61.71;95308.88;4946284;28;20567;-72
2021/04/28 06:46:53;;;;;;;39.60;10.90;;;;;;;10.68;60.79;95308.84;4942733;28;21287;-71
2021/04/28 06:49:21;;;;;;;24.13;10.37;;;;;;;11.00;59.49;95305.19;4946594;28;20517;-71
2021/04/28 06:51:48;;;;;;;23.87;10.00;;;;;;;11.17;58.90;95304.59;4942376;28;20454;-71
2021/04/28 06:54:14;;;;;;;19.57;9.40;;;;;;;11.36;58.21;95307.28;4946049;28;20466;-70
2021/04/28 06:56:46;;;;;;;25.37;8.50;;;;;;;11.58;56.94;95295.88;4953063;28;20446;-70
2021/04/28 06:59:15;;;;;;;22.27;8.67;;;;;;;11.78;56.79;95292.34;4947153;28;20470;-73
2021/04/28 07:01:45;;;;;;;18.80;8.23;;;;;;;12.14;55.70;95308.19;4941694;28;20763;-73
2021/04/28 07:04:12;;;;;;;26.03;8.40;;;;;;;12.36;55.75;95307.13;4941328;28;21139;-70
2021/04/28 07:06:42;;;;;;;21.63;8.00;;;;;;;12.66;55.82;95309.56;4946257;28;20518;-72
2021/04/28 07:09:09;;;;;;;14.03;8.50;;;;;;;12.98;55.30;95308.31;4943706;28;21211;-70
2021/04/28 07:11:36;;;;;;;16.67;7.53;;;;;;;13.31;55.59;95307.78;4947190;28;20951;-71
2021/04/28 07:14:04;;;;;;;19.03;7.43;;;;;;;13.65;54.49;95308.91;4919129;28;20817;-71
2021/04/28 07:16:31;;;;;;;19.93;8.87;;;;;;;13.86;54.76;95309.47;4949698;28;20977;-71
2021/04/28 07:18:58;;;;;;;12.67;7.20;;;;;;;14.24;54.26;95307.44;4945994;28;20469;-70
2021/04/28 07:21:25;;;;;;;17.87;8.90;;;;;;;14.54;53.23;95307.13;4942916;28;20929;-70
2021/04/28 07:23:53;;;;;;;17.23;9.00;;;;;;;15.11;50.71;95306.56;4943477;28;20823;-70
2021/04/28 07:26:20;;;;;;;20.67;9.10;;;;;;;15.48;49.27;95303.72;4946904;28;20430;-70
2021/04/28 07:28:49;;;;;;;13.97;8.67;;;;;;;15.67;48.30;95314.78;4953737;28;21040;-71
2021/04/28 07:31:17;;;;;;;15.90;8.40;;;;;;;15.83;48.33;95300.91;4944205;28;20442;-72
2021/04/28 07:33:46;;;;;;;18.43;9.30;;;;;;;15.99;47.61;95303.59;4945798;28;20492;-71
2021/04/28 07:36:14;;;;;;;20.13;9.80;;;;;;;16.23;47.33;95308.91;4947489;28;20434;-72
2021/04/28 07:38:44;;;;;;;37.20;18.00;;;;;;;16.37;47.63;95301.28;4948691;28;20949;-71
2021/04/28 07:41:12;;;;;;;14.23;8.97;;;;;;;16.53;46.73;95303.09;4938882;28;20443;-71
2021/04/28 07:43:39;;;;;;;17.30;9.77;;;;;;;16.63;46.62;95306.41;4940338;28;20538;-73
2021/04/28 07:46:06;;;;;;;17.20;8.77;;;;;;;16.50;46.66;95308.69;4947062;28;20766;-73
2021/04/28 07:48:33;;;;;;;17.37;9.20;;;;;;;16.36;47.86;95298.78;4952158;28;20515;-71
2021/04/28 07:51:00;;;;;;;17.13;9.20;;;;;;;16.27;47.41;95283.97;4946474;28;20970;-71
2021/04/28 07:53:27;;;;;;;19.83;9.90;;;;;;;16.34;47.71;95293.66;4945274;28;20482;-72
2021/04/28 07:55:55;;;;;;;17.80;10.30;;;;;;;16.24;47.70;95293.00;4945233;28;20563;-71
2021/04/28 07:58:22;;;;;;;17.17;10.00;;;;;;;16.04;48.04;95291.63;4940243;28;20436;-70
2021/04/28 08:00:50;;;;;;;21.83;10.03;;;;;;;16.53;47.82;95298.66;4948147;28;20885;-72
2021/04/28 08:03:16;;;;;;;23.23;10.40;;;;;;;16.70;47.20;95291.63;4946175;28;20474;-72
2021/04/28 08:05:43;;;;;;;22.47;9.80;;;;;;;16.85;47.48;95297.88;4945258;28;20745;-72
2021/04/28 08:08:10;;;;;;;18.57;10.23;;;;;;;16.94;47.04;95296.88;4942232;28;20944;-72
2021/04/28 08:10:37;;;;;;;19.50;10.27;;;;;;;16.92;45.88;95301.47;4950809;28;20975;-73
2021/04/28 08:13:08;;;;;;;22.03;10.30;;;;;;;16.97;46.48;95305.25;4939750;28;20916;-71
2021/04/28 08:15:36;;;;;;;19.90;10.77;;;;;;;17.17;46.25;95297.84;4938926;28;21085;-73
2021/04/28 08:18:04;;;;;;;23.20;10.67;;;;;;;17.26;45.49;95300.28;4946392;28;21090;-73
2021/04/28 08:20:31;;;;;;;19.63;10.10;;;;;;;17.16;46.21;95297.00;4937072;28;20466;-71
2021/04/28 08:22:58;;;;;;;27.20;10.10;;;;;;;17.39;45.54;95308.53;4945702;28;20431;-73
2021/04/28 08:25:25;;;;;;;19.60;10.27;;;;;;;17.67;45.27;95307.94;4946725;28;20472;-71
2021/04/28 08:27:52;;;;;;;22.30;10.07;;;;;;;17.98;43.61;95303.53;4950993;28;20586;-72
2021/04/28 08:30:20;;;;;;;21.70;10.17;;;;;;;18.29;42.91;95280.66;4943509;28;20466;-70
2021/04/28 08:32:57;;;;;;;28.10;9.63;;;;;;;18.97;42.25;95289.44;4942171;28;20837;-72
2021/04/28 08:35:24;;;;;;;21.90;10.97;;;;;;;19.50;41.38;95280.53;4942466;28;20466;-71
2021/04/28 08:37:50;;;;;;;22.40;10.87;;;;;;;19.41;40.81;95287.72;4943886;28;20477;-71
2021/04/28 08:40:19;;;;;;;24.60;10.50;;;;;;;19.09;40.96;95290.63;4945314;28;20463;-72
2021/04/28 08:42:46;;;;;;;18.03;9.40;;;;;;;18.74;40.65;95283.38;4939437;28;20439;-73
2021/04/28 08:45:14;;;;;;;19.53;9.23;;;;;;;18.45;40.34;95269.22;4946876;28;20933;-70
2021/04/28 08:47:43;;;;;;;22.00;8.40;;;;;;;19.06;40.07;95282.25;4948996;28;20625;-70
2021/04/28 08:50:12;;;;;;;15.37;8.80;;;;;;;19.15;38.68;95282.00;4942437;28;20549;-72
2021/04/28 08:52:40;;;;;;;25.87;7.90;;;;;;;19.12;38.73;95277.09;4946787;28;20868;-72
2021/04/28 08:55:10;;;;;;;18.50;8.67;;;;;;;19.27;38.97;95275.34;4942969;28;21083;-70
2021/04/28 08:57:37;;;;;;;14.70;8.37;;;;;;;19.44;38.85;95271.53;4945353;28;20450;-73
2021/04/28 09:00:06;;;;;;;15.60;7.80;;;;;;;19.69;38.45;95266.81;4942591;28;20852;-72
2021/04/28 09:02:33;;;;;;;13.37;7.50;;;;;;;19.57;37.81;95269.09;4933776;28;20863;-71
2021/04/28 09:05:10;;;;;;;17.23;8.10;;;;;;;19.30;37.62;95274.16;4922643;28;20475;-72
2021/04/28 09:07:39;;;;;;;15.13;8.17;;;;;;;19.34;38.37;95270.97;4925964;28;20989;-73
2021/04/28 09:10:09;;;;;;;13.50;6.87;;;;;;;19.57;37.45;95263.81;4924141;29;21054;-72
2021/04/28 09:12:44;;;;;;;15.80;8.33;;;;;;;20.01;37.42;95263.75;4920247;29;20463;-72
2021/04/28 09:15:11;;;;;;;18.50;6.93;;;;;;;20.38;36.34;95264.44;4920139;29;20463;-71
2021/04/28 09:17:52;;;;;;;11.70;6.23;;;;;;;20.36;36.55;95269.09;4929621;29;21119;-72
2021/04/28 09:20:25;;;;;;;12.27;7.03;;;;;;;20.01;36.47;95263.75;4922624;29;20467;-71
2021/04/28 09:23:12;;;;;;;49.00;25.87;;;;;;;20.14;36.37;95248.09;4922994;29;20902;-73
2021/04/28 09:25:46;;;;;;;14.80;7.10;;;;;;;20.81;35.10;95263.47;4917390;29;21205;-73
2021/04/28 09:28:34;;;;;;;10.63;6.50;;;;;;;20.68;34.98;95251.94;4921664;29;20478;-75
2021/04/28 09:31:13;;;;;;;11.87;5.73;;;;;;;20.87;35.44;95257.44;4924730;28;20944;-72
2021/04/28 09:33:55;;;;;;;10.40;6.30;;;;;;;20.72;35.24;95256.66;4922979;28;20482;-73
2021/04/28 09:36:31;;;;;;;11.33;6.20;;;;;;;20.58;35.59;95254.91;4928251;29;20545;-72
2021/04/28 09:39:02;;;;;;;11.50;6.07;;;;;;;20.70;35.54;95257.84;4916648;29;21051;-73
2021/04/28 09:41:34;;;;;;;14.27;8.20;;;;;;;21.21;34.97;95260.16;4921735;29;20836;-71
2021/04/28 09:44:04;;;;;;;10.30;6.23;;;;;;;21.02;35.47;95255.53;4926400;29;20483;-70
2021/04/28 09:46:33;;;;;;;9.60;5.43;;;;;;;21.71;35.60;95261.75;4930298;29;20612;-73
2021/04/28 09:49:02;;;;;;;10.73;5.70;;;;;;;22.44;34.68;95246.00;4929104;29;20467;-75
2021/04/28 09:51:34;;;;;;;7.40;4.80;;;;;;;22.78;33.60;95234.19;4922576;29;20705;-72
2021/04/28 09:54:13;;;;;;;13.70;5.37;;;;;;;22.94;32.35;95240.97;4927963;28;20471;-71
2021/04/28 09:56:41;;;;;;;9.03;5.33;;;;;;;22.75;33.84;95231.97;4925811;29;20470;-72
2021/04/28 09:59:09;;;;;;;6.43;4.60;;;;;;;22.92;32.65;95238.50;4922430;29;20460;-73
2021/04/28 10:01:37;;;;;;;6.83;5.00;;;;;;;22.72;33.17;95231.53;4927964;29;20739;-72
2021/04/28 10:04:06;;;;;;;7.40;5.20;;;;;;;22.39;34.39;95241.22;4918021;29;20475;-74
2021/04/28 10:06:45;;;;;;;9.17;5.63;;;;;;;22.56;33.85;95226.63;4917476;29;20997;-74
2021/04/28 10:09:31;;;;;;;13.03;4.80;;;;;;;22.85;33.56;95232.38;4921645;28;21128;-73
2021/04/28 10:11:59;;;;;;;14.70;4.67;;;;;;;22.30;33.62;95231.81;4923304;29;20510;-73
2021/04/28 10:14:28;;;;;;;11.00;5.30;;;;;;;21.51;34.38;95234.28;4926080;28;20954;-76
2021/04/28 10:16:56;;;;;;;26.07;5.33;;;;;;;21.57;34.33;95231.69;4923485;29;20454;-74
2021/04/28 10:19:24;;;;;;;12.10;7.10;;;;;;;21.96;33.40;95223.97;4926556;28;20463;-73
2021/04/28 10:21:53;;;;;;;8.50;4.80;;;;;;;21.89;33.54;95219.66;4926661;29;20510;-74
2021/04/28 10:24:22;;;;;;;11.33;6.63;;;;;;;21.80;33.68;95218.97;4930801;28;20475;-74
2021/04/28 10:26:50;;;;;;;15.93;5.80;;;;;;;21.82;33.83;95216.16;4924399;29;21102;-74
2021/04/28 10:29:19;;;;;;;10.30;5.40;;;;;;;21.64;34.41;95203.38;4927550;29;20464;-72
2021/04/28 10:31:49;;;;;;;6.47;4.30;;;;;;;21.30;34.79;95216.66;4922535;29;20471;-72
2021/04/28 10:34:27;;;;;;;11.30;6.20;;;;;;;21.40;34.61;95217.13;4939298;28;20517;-74
2021/04/28 10:36:58;;;;;;;9.20;5.13;;;;;;;21.59;34.84;95227.03;4919080;29;20811;-74
2021/04/28 10:39:30;;;;;;;11.67;5.40;;;;;;;21.89;33.71;95220.47;4938589;28;20467;-74
2021/04/28 10:41:58;;;;;;;22.67;7.50;;;;;;;23.08;34.33;95221.38;4921809;29;20926;-72
2021/04/28 10:44:45;;;;;;;62.83;12.97;;;;;;;23.83;34.13;95211.88;4927226;29;20475;-74
2021/04/28 10:47:40;;;;;;;15.50;9.13;;;;;;;24.36;34.30;95202.66;4917597;29;20823;-74
2021/04/28 10:50:21;;;;;;;15.47;7.67;;;;;;;25.24;33.51;95204.31;4920450;29;20462;-75
2021/04/28 10:52:59;;;;;;;13.27;8.20;;;;;;;25.73;31.83;95206.91;4927741;29;21021;-72
2021/04/28 10:55:55;;;;;;;15.40;7.80;;;;;;;25.41;31.11;95202.75;4919013;29;20779;-74
2021/04/28 10:58:49;;;;;;;31.20;8.47;;;;;;;24.27;31.28;95201.28;4924140;28;20919;-77
2021/04/28 11:01:32;;;;;;;17.23;7.30;;;;;;;23.76;33.59;95204.91;4927974;29;20443;-75
2021/04/28 11:03:59;;;;;;;9.70;6.53;;;;;;;24.76;33.58;95205.91;4928001;28;20448;-74
2021/04/28 11:06:48;;;;;;;32.20;9.40;;;;;;;25.85;31.41;95199.81;4925809;29;20486;-74
2021/04/28 11:09:21;;;;;;;16.70;8.37;;;;;;;25.64;30.56;95200.25;4921341;28;20463;-74
2021/04/28 11:11:52;;;;;;;15.40;8.93;;;;;;;25.17;31.93;95190.19;4917492;29;20914;-76
2021/04/28 11:14:50;;;;;;;22.47;13.80;;;;;;;25.33;32.47;95195.84;4926123;29;20846;-74
2021/04/28 11:17:28;;;;;;;61.97;38.03;;;;;;;25.55;33.22;95196.25;4917806;29;20462;-76
2021/04/28 11:19:56;;;;;;;18.80;8.00;;;;;;;25.99;32.48;95190.66;4923229;28;20826;-75
2021/04/28 11:22:36;;;;;;;15.93;7.70;;;;;;;25.45;32.05;95193.25;4921557;29;20467;-74
2021/04/28 11:25:16;;;;;;;14.23;7.60;;;;;;;25.98;32.97;95178.38;4921819;28;20467;-73
2021/04/28 11:27:46;;;;;;;15.80;8.23;;;;;;;25.78;32.56;95199.06;4940711;28;20470;-75
2021/04/28 11:30:45;;;;;;;15.90;9.73;;;;;;;25.65;32.56;95189.38;4922082;29;21230;-75
2021/04/28 11:33:33;;;;;;;24.50;9.00;;;;;;;25.60;32.62;95191.06;4925472;29;20832;-72
2021/04/28 11:36:13;;;;;;;160.50;14.60;;;;;;;25.91;30.94;95188.28;4921606;29;20861;-76
2021/04/28 11:38:44;;;;;;;18.10;8.20;;;;;;;26.36;31.64;95194.91;4937582;28;20477;-76
2021/04/28 11:41:13;;;;;;;15.80;8.23;;;;;;;26.49;31.04;95192.06;4918231;29;20439;-75